Not for real navigation | The accuracy of this data is not assured | See disclaimer for more information
ICAO NAME COUNTRY WIND Kt GUST Kt VIS TEMP/DEW BARO
CYPX Povungnituq Canada 7 0 9999 -23/-26 30.78
CYPX 310500Z AUTO 04007KT 9SM CAVOK M23/M26 A3078 RMK SLP427
CYBK Baker Lake, N. W. T. Canada 9 0 9999 -30/-34 30.77
CYBK 310500Z 33009KT 15SM IC CAVOK M30/M34 A3077 RMK SLP425
CYRT Rankin Inlet, N. W. T. Canada 0 0 24000 -27/-31 30.77
CYRT 310500Z 00000KT 15SM IC FEW130 BKN250 M27/M31 A3077 RMK AC2CI3 SLP428
CYCO Coppermine, N. W. T. Canada 12 0 24000 -26/-30 30.72
CYCO 310500Z 23012KT 15SM FEW150 FEW250 M26/M30 A3072 RMK AC1CS1 AC TR SLP408
CYPH Inukjuak Airport Supplementary Canada 7 0 9999 -22/-25 30.72
CYPH 310500Z AUTO 06007KT 9SM CAVOK M22/M25 A3072 RMK SLP407

Show more

Close Menu